sensor_id;sensor_type;location;lat;lon;timestamp;P1;durP1;ratioP1;P2;durP2;ratioP2
21018;SDS011;10667;51.056;3.732;2022-08-19T00:01:40;52.42;;;35.45;;
21018;SDS011;10667;51.056;3.732;2022-08-19T00:04:08;51.25;;;34.70;;
21018;SDS011;10667;51.056;3.732;2022-08-19T00:06:37;57.03;;;37.80;;
21018;SDS011;10667;51.056;3.732;2022-08-19T00:09:04;48.85;;;35.03;;
21018;SDS011;10667;51.056;3.732;2022-08-19T00:11:32;52.95;;;37.70;;
21018;SDS011;10667;51.056;3.732;2022-08-19T00:13:58;53.90;;;37.38;;
21018;SDS011;10667;51.056;3.732;2022-08-19T00:16:24;56.72;;;39.83;;
21018;SDS011;10667;51.056;3.732;2022-08-19T00:18:50;60.17;;;40.05;;
21018;SDS011;10667;51.056;3.732;2022-08-19T00:21:16;59.20;;;40.45;;
21018;SDS011;10667;51.056;3.732;2022-08-19T00:23:43;55.05;;;38.17;;
21018;SDS011;10667;51.056;3.732;2022-08-19T00:26:09;58.30;;;37.97;;
21018;SDS011;10667;51.056;3.732;2022-08-19T00:28:36;55.75;;;36.38;;
21018;SDS011;10667;51.056;3.732;2022-08-19T00:31:02;52.10;;;35.22;;
21018;SDS011;10667;51.056;3.732;2022-08-19T00:33:30;47.35;;;33.03;;
21018;SDS011;10667;51.056;3.732;2022-08-19T00:36:03;47.67;;;33.55;;
21018;SDS011;10667;51.056;3.732;2022-08-19T00:38:32;47.33;;;33.42;;
21018;SDS011;10667;51.056;3.732;2022-08-19T00:40:59;47.90;;;32.90;;
21018;SDS011;10667;51.056;3.732;2022-08-19T00:43:25;47.70;;;32.75;;
21018;SDS011;10667;51.056;3.732;2022-08-19T00:45:52;51.65;;;33.90;;
21018;SDS011;10667;51.056;3.732;2022-08-19T00:48:19;47.78;;;32.83;;
21018;SDS011;10667;51.056;3.732;2022-08-19T00:50:46;49.22;;;32.10;;
21018;SDS011;10667;51.056;3.732;2022-08-19T00:53:14;48.60;;;31.52;;
21018;SDS011;10667;51.056;3.732;2022-08-19T00:55:47;48.88;;;32.17;;
21018;SDS011;10667;51.056;3.732;2022-08-19T00:58:16;47.03;;;32.47;;
21018;SDS011;10667;51.056;3.732;2022-08-19T01:00:49;46.83;;;30.83;;
21018;SDS011;10667;51.056;3.732;2022-08-19T01:03:16;47.03;;;31.73;;
21018;SDS011;10667;51.056;3.732;2022-08-19T01:05:43;46.03;;;31.67;;
21018;SDS011;10667;51.056;3.732;2022-08-19T01:08:10;43.05;;;29.88;;
21018;SDS011;10667;51.056;3.732;2022-08-19T01:10:37;49.50;;;30.63;;
21018;SDS011;10667;51.056;3.732;2022-08-19T01:13:06;48.72;;;29.85;;
21018;SDS011;10667;51.056;3.732;2022-08-19T01:15:33;43.97;;;29.35;;
21018;SDS011;10667;51.056;3.732;2022-08-19T01:18:10;41.80;;;27.40;;
21018;SDS011;10667;51.056;3.732;2022-08-19T01:20:38;39.80;;;28.67;;
21018;SDS011;10667;51.056;3.732;2022-08-19T01:23:04;41.45;;;28.80;;
21018;SDS011;10667;51.056;3.732;2022-08-19T01:25:44;39.92;;;27.45;;
21018;SDS011;10667;51.056;3.732;2022-08-19T01:28:23;40.67;;;26.17;;
21018;SDS011;10667;51.056;3.732;2022-08-19T01:30:51;42.13;;;27.58;;
21018;SDS011;10667;51.056;3.732;2022-08-19T01:33:18;35.03;;;25.98;;
21018;SDS011;10667;51.056;3.732;2022-08-19T01:35:45;37.92;;;25.80;;
21018;SDS011;10667;51.056;3.732;2022-08-19T01:38:20;38.25;;;25.50;;
21018;SDS011;10667;51.056;3.732;2022-08-19T01:40:48;43.97;;;26.50;;
21018;SDS011;10667;51.056;3.732;2022-08-19T01:43:14;52.67;;;26.48;;
21018;SDS011;10667;51.056;3.732;2022-08-19T01:45:40;34.58;;;23.58;;
21018;SDS011;10667;51.056;3.732;2022-08-19T01:48:06;37.25;;;25.63;;
21018;SDS011;10667;51.056;3.732;2022-08-19T01:50:33;39.75;;;24.45;;
21018;SDS011;10667;51.056;3.732;2022-08-19T01:53:00;36.33;;;24.25;;
21018;SDS011;10667;51.056;3.732;2022-08-19T01:55:28;38.67;;;24.20;;
21018;SDS011;10667;51.056;3.732;2022-08-19T01:57:56;40.95;;;24.40;;
21018;SDS011;10667;51.056;3.732;2022-08-19T02:00:25;35.30;;;23.75;;
21018;SDS011;10667;51.056;3.732;2022-08-19T02:02:53;40.65;;;23.88;;
21018;SDS011;10667;51.056;3.732;2022-08-19T02:05:19;37.88;;;24.48;;
21018;SDS011;10667;51.056;3.732;2022-08-19T02:07:46;38.05;;;23.40;;
21018;SDS011;10667;51.056;3.732;2022-08-19T02:10:13;31.52;;;22.75;;
21018;SDS011;10667;51.056;3.732;2022-08-19T02:12:42;34.90;;;23.92;;
21018;SDS011;10667;51.056;3.732;2022-08-19T02:15:08;36.60;;;23.30;;
21018;SDS011;10667;51.056;3.732;2022-08-19T02:17:34;38.05;;;22.48;;
21018;SDS011;10667;51.056;3.732;2022-08-19T02:20:00;36.97;;;22.88;;
21018;SDS011;10667;51.056;3.732;2022-08-19T02:22:26;42.03;;;23.38;;
21018;SDS011;10667;51.056;3.732;2022-08-19T02:24:52;34.22;;;20.92;;
21018;SDS011;10667;51.056;3.732;2022-08-19T02:27:18;33.47;;;22.83;;
21018;SDS011;10667;51.056;3.732;2022-08-19T02:29:45;34.28;;;21.48;;
21018;SDS011;10667;51.056;3.732;2022-08-19T02:32:12;34.80;;;22.52;;
21018;SDS011;10667;51.056;3.732;2022-08-19T02:34:38;39.20;;;23.70;;
21018;SDS011;10667;51.056;3.732;2022-08-19T02:37:04;35.00;;;21.67;;
21018;SDS011;10667;51.056;3.732;2022-08-19T02:39:29;36.13;;;23.08;;
21018;SDS011;10667;51.056;3.732;2022-08-19T02:41:55;37.38;;;23.05;;
21018;SDS011;10667;51.056;3.732;2022-08-19T02:44:21;32.35;;;21.98;;
21018;SDS011;10667;51.056;3.732;2022-08-19T02:46:47;39.67;;;22.35;;
21018;SDS011;10667;51.056;3.732;2022-08-19T02:49:15;32.63;;;21.83;;
21018;SDS011;10667;51.056;3.732;2022-08-19T02:51:42;35.90;;;22.85;;
21018;SDS011;10667;51.056;3.732;2022-08-19T02:54:10;34.63;;;22.23;;
21018;SDS011;10667;51.056;3.732;2022-08-19T02:56:38;36.38;;;22.15;;
21018;SDS011;10667;51.056;3.732;2022-08-19T02:59:05;38.28;;;23.77;;
21018;SDS011;10667;51.056;3.732;2022-08-19T03:01:33;38.28;;;22.95;;
21018;SDS011;10667;51.056;3.732;2022-08-19T03:04:00;37.80;;;23.23;;
21018;SDS011;10667;51.056;3.732;2022-08-19T03:06:28;36.78;;;21.67;;
21018;SDS011;10667;51.056;3.732;2022-08-19T03:08:55;34.25;;;21.63;;
21018;SDS011;10667;51.056;3.732;2022-08-19T03:11:22;42.10;;;21.83;;
21018;SDS011;10667;51.056;3.732;2022-08-19T03:13:56;37.35;;;23.23;;
21018;SDS011;10667;51.056;3.732;2022-08-19T03:16:23;39.72;;;23.52;;
21018;SDS011;10667;51.056;3.732;2022-08-19T03:18:51;31.92;;;20.67;;
21018;SDS011;10667;51.056;3.732;2022-08-19T03:21:23;30.33;;;19.38;;
21018;SDS011;10667;51.056;3.732;2022-08-19T03:23:50;31.63;;;20.35;;
21018;SDS011;10667;51.056;3.732;2022-08-19T03:26:19;33.05;;;20.98;;
21018;SDS011;10667;51.056;3.732;2022-08-19T03:28:45;30.70;;;20.25;;
21018;SDS011;10667;51.056;3.732;2022-08-19T03:31:14;34.55;;;20.45;;
21018;SDS011;10667;51.056;3.732;2022-08-19T03:33:41;32.30;;;19.15;;
21018;SDS011;10667;51.056;3.732;2022-08-19T03:36:12;32.33;;;18.98;;
21018;SDS011;10667;51.056;3.732;2022-08-19T03:38:41;30.05;;;18.13;;
21018;SDS011;10667;51.056;3.732;2022-08-19T03:41:12;27.90;;;17.05;;
21018;SDS011;10667;51.056;3.732;2022-08-19T03:43:40;29.27;;;17.00;;
21018;SDS011;10667;51.056;3.732;2022-08-19T03:46:08;33.05;;;18.17;;
21018;SDS011;10667;51.056;3.732;2022-08-19T03:48:36;26.88;;;18.70;;
21018;SDS011;10667;51.056;3.732;2022-08-19T03:51:04;28.98;;;16.63;;
21018;SDS011;10667;51.056;3.732;2022-08-19T03:53:30;27.63;;;16.17;;
21018;SDS011;10667;51.056;3.732;2022-08-19T03:55:57;23.30;;;15.93;;
21018;SDS011;10667;51.056;3.732;2022-08-19T03:58:26;26.20;;;15.90;;
21018;SDS011;10667;51.056;3.732;2022-08-19T04:00:57;28.98;;;17.27;;
21018;SDS011;10667;51.056;3.732;2022-08-19T04:03:24;28.83;;;16.80;;
21018;SDS011;10667;51.056;3.732;2022-08-19T04:05:51;30.98;;;16.80;;
21018;SDS011;10667;51.056;3.732;2022-08-19T04:08:18;27.02;;;16.33;;
21018;SDS011;10667;51.056;3.732;2022-08-19T04:10:47;24.35;;;15.80;;
21018;SDS011;10667;51.056;3.732;2022-08-19T04:13:14;24.60;;;14.30;;
21018;SDS011;10667;51.056;3.732;2022-08-19T04:15:42;24.67;;;14.63;;
21018;SDS011;10667;51.056;3.732;2022-08-19T04:18:09;20.55;;;14.13;;
21018;SDS011;10667;51.056;3.732;2022-08-19T04:20:42;24.27;;;14.75;;
21018;SDS011;10667;51.056;3.732;2022-08-19T04:23:10;26.27;;;15.25;;
21018;SDS011;10667;51.056;3.732;2022-08-19T04:25:41;29.70;;;15.95;;
21018;SDS011;10667;51.056;3.732;2022-08-19T04:28:08;27.30;;;15.73;;
21018;SDS011;10667;51.056;3.732;2022-08-19T04:30:39;26.92;;;15.77;;
21018;SDS011;10667;51.056;3.732;2022-08-19T04:33:06;24.75;;;14.88;;
21018;SDS011;10667;51.056;3.732;2022-08-19T04:35:36;26.52;;;14.90;;
21018;SDS011;10667;51.056;3.732;2022-08-19T04:38:04;25.38;;;15.57;;
21018;SDS011;10667;51.056;3.732;2022-08-19T04:40:30;27.25;;;15.07;;
21018;SDS011;10667;51.056;3.732;2022-08-19T04:43:14;24.48;;;15.05;;
21018;SDS011;10667;51.056;3.732;2022-08-19T04:45:41;23.38;;;15.00;;
21018;SDS011;10667;51.056;3.732;2022-08-19T04:48:11;27.80;;;15.45;;
21018;SDS011;10667;51.056;3.732;2022-08-19T04:50:43;25.42;;;14.70;;
21018;SDS011;10667;51.056;3.732;2022-08-19T04:53:09;28.52;;;15.80;;
21018;SDS011;10667;51.056;3.732;2022-08-19T04:55:38;21.50;;;14.27;;
21018;SDS011;10667;51.056;3.732;2022-08-19T04:58:05;31.27;;;15.10;;
21018;SDS011;10667;51.056;3.732;2022-08-19T05:00:31;24.38;;;14.93;;
21018;SDS011;10667;51.056;3.732;2022-08-19T05:02:57;28.90;;;16.65;;
21018;SDS011;10667;51.056;3.732;2022-08-19T05:05:22;22.52;;;13.73;;
21018;SDS011;10667;51.056;3.732;2022-08-19T05:07:48;27.17;;;14.65;;
21018;SDS011;10667;51.056;3.732;2022-08-19T05:10:14;28.10;;;15.82;;
21018;SDS011;10667;51.056;3.732;2022-08-19T05:12:39;23.98;;;15.10;;
21018;SDS011;10667;51.056;3.732;2022-08-19T05:15:06;24.23;;;13.85;;
21018;SDS011;10667;51.056;3.732;2022-08-19T05:17:33;24.00;;;14.27;;
21018;SDS011;10667;51.056;3.732;2022-08-19T05:19:59;30.60;;;14.43;;
21018;SDS011;10667;51.056;3.732;2022-08-19T05:22:45;24.00;;;14.23;;
21018;SDS011;10667;51.056;3.732;2022-08-19T05:25:14;23.90;;;14.07;;
21018;SDS011;10667;51.056;3.732;2022-08-19T05:27:43;24.50;;;14.10;;
21018;SDS011;10667;51.056;3.732;2022-08-19T05:30:10;24.90;;;14.48;;
21018;SDS011;10667;51.056;3.732;2022-08-19T05:32:37;26.20;;;13.50;;
21018;SDS011;10667;51.056;3.732;2022-08-19T05:35:04;19.83;;;13.27;;
21018;SDS011;10667;51.056;3.732;2022-08-19T05:37:31;23.88;;;13.73;;
21018;SDS011;10667;51.056;3.732;2022-08-19T05:39:57;23.63;;;12.85;;
21018;SDS011;10667;51.056;3.732;2022-08-19T05:42:23;23.58;;;13.25;;
21018;SDS011;10667;51.056;3.732;2022-08-19T05:44:49;22.70;;;13.15;;
21018;SDS011;10667;51.056;3.732;2022-08-19T05:47:16;24.63;;;13.02;;
21018;SDS011;10667;51.056;3.732;2022-08-19T05:49:44;25.40;;;13.73;;
21018;SDS011;10667;51.056;3.732;2022-08-19T05:52:10;25.23;;;14.25;;
21018;SDS011;10667;51.056;3.732;2022-08-19T05:54:39;26.88;;;13.50;;
21018;SDS011;10667;51.056;3.732;2022-08-19T05:57:06;26.70;;;14.73;;
21018;SDS011;10667;51.056;3.732;2022-08-19T05:59:33;26.92;;;15.60;;
21018;SDS011;10667;51.056;3.732;2022-08-19T06:02:00;26.77;;;15.73;;
21018;SDS011;10667;51.056;3.732;2022-08-19T06:04:27;27.55;;;13.90;;
21018;SDS011;10667;51.056;3.732;2022-08-19T06:06:53;24.63;;;14.07;;
21018;SDS011;10667;51.056;3.732;2022-08-19T06:09:20;28.55;;;15.18;;
21018;SDS011;10667;51.056;3.732;2022-08-19T06:11:50;28.15;;;14.82;;
21018;SDS011;10667;51.056;3.732;2022-08-19T06:14:27;28.42;;;14.60;;
21018;SDS011;10667;51.056;3.732;2022-08-19T06:16:55;27.20;;;15.77;;
21018;SDS011;10667;51.056;3.732;2022-08-19T06:19:22;25.25;;;15.10;;
21018;SDS011;10667;51.056;3.732;2022-08-19T06:21:49;25.50;;;15.25;;
21018;SDS011;10667;51.056;3.732;2022-08-19T06:24:21;26.13;;;13.90;;
21018;SDS011;10667;51.056;3.732;2022-08-19T06:26:49;26.55;;;14.55;;
21018;SDS011;10667;51.056;3.732;2022-08-19T06:29:17;24.05;;;14.00;;
21018;SDS011;10667;51.056;3.732;2022-08-19T06:31:45;24.25;;;13.50;;
21018;SDS011;10667;51.056;3.732;2022-08-19T06:34:12;22.95;;;14.70;;
21018;SDS011;10667;51.056;3.732;2022-08-19T06:36:40;22.60;;;13.40;;
21018;SDS011;10667;51.056;3.732;2022-08-19T06:39:12;24.27;;;13.45;;
21018;SDS011;10667;51.056;3.732;2022-08-19T06:41:40;27.70;;;13.10;;
21018;SDS011;10667;51.056;3.732;2022-08-19T06:44:10;20.13;;;12.55;;
21018;SDS011;10667;51.056;3.732;2022-08-19T06:46:37;21.90;;;12.52;;
21018;SDS011;10667;51.056;3.732;2022-08-19T06:49:03;21.98;;;12.27;;
21018;SDS011;10667;51.056;3.732;2022-08-19T06:51:29;21.63;;;12.00;;
21018;SDS011;10667;51.056;3.732;2022-08-19T06:53:56;24.77;;;11.95;;
21018;SDS011;10667;51.056;3.732;2022-08-19T06:56:27;22.25;;;12.30;;
21018;SDS011;10667;51.056;3.732;2022-08-19T06:58:58;22.02;;;11.65;;
21018;SDS011;10667;51.056;3.732;2022-08-19T07:01:28;18.85;;;11.13;;
21018;SDS011;10667;51.056;3.732;2022-08-19T07:03:54;21.08;;;11.38;;
21018;SDS011;10667;51.056;3.732;2022-08-19T07:06:20;20.05;;;11.50;;
21018;SDS011;10667;51.056;3.732;2022-08-19T07:08:46;14.23;;;10.00;;
21018;SDS011;10667;51.056;3.732;2022-08-19T07:11:13;15.88;;;10.48;;
21018;SDS011;10667;51.056;3.732;2022-08-19T07:13:41;14.95;;;9.40;;
21018;SDS011;10667;51.056;3.732;2022-08-19T07:16:10;20.08;;;11.02;;
21018;SDS011;10667;51.056;3.732;2022-08-19T07:18:37;15.63;;;11.00;;
21018;SDS011;10667;51.056;3.732;2022-08-19T07:21:04;17.60;;;10.02;;
21018;SDS011;10667;51.056;3.732;2022-08-19T07:23:31;18.92;;;10.63;;
21018;SDS011;10667;51.056;3.732;2022-08-19T07:25:57;14.05;;;10.90;;
21018;SDS011;10667;51.056;3.732;2022-08-19T07:28:23;14.65;;;10.15;;
21018;SDS011;10667;51.056;3.732;2022-08-19T07:30:49;17.02;;;10.60;;
21018;SDS011;10667;51.056;3.732;2022-08-19T07:33:15;16.83;;;10.80;;
21018;SDS011;10667;51.056;3.732;2022-08-19T07:35:43;16.58;;;10.43;;
21018;SDS011;10667;51.056;3.732;2022-08-19T07:38:08;14.80;;;10.68;;
21018;SDS011;10667;51.056;3.732;2022-08-19T07:40:34;19.02;;;10.38;;
21018;SDS011;10667;51.056;3.732;2022-08-19T07:43:00;17.30;;;12.70;;
21018;SDS011;10667;51.056;3.732;2022-08-19T07:45:26;19.70;;;12.13;;
21018;SDS011;10667;51.056;3.732;2022-08-19T07:47:53;17.33;;;12.15;;
21018;SDS011;10667;51.056;3.732;2022-08-19T07:50:20;15.43;;;11.60;;
21018;SDS011;10667;51.056;3.732;2022-08-19T07:52:46;22.45;;;13.85;;
21018;SDS011;10667;51.056;3.732;2022-08-19T07:55:15;22.60;;;12.88;;
21018;SDS011;10667;51.056;3.732;2022-08-19T07:57:42;18.63;;;12.27;;
21018;SDS011;10667;51.056;3.732;2022-08-19T08:00:08;19.33;;;12.73;;
21018;SDS011;10667;51.056;3.732;2022-08-19T08:02:34;27.00;;;12.60;;
21018;SDS011;10667;51.056;3.732;2022-08-19T08:05:00;19.60;;;12.00;;
21018;SDS011;10667;51.056;3.732;2022-08-19T08:07:44;16.70;;;12.45;;
21018;SDS011;10667;51.056;3.732;2022-08-19T08:10:29;21.60;;;12.15;;
21018;SDS011;10667;51.056;3.732;2022-08-19T08:12:54;15.32;;;11.18;;
21018;SDS011;10667;51.056;3.732;2022-08-19T08:15:20;16.45;;;11.13;;
21018;SDS011;10667;51.056;3.732;2022-08-19T08:17:46;25.35;;;12.35;;
21018;SDS011;10667;51.056;3.732;2022-08-19T08:20:13;16.38;;;11.32;;
21018;SDS011;10667;51.056;3.732;2022-08-19T08:22:42;21.42;;;10.85;;
21018;SDS011;10667;51.056;3.732;2022-08-19T08:25:28;19.90;;;11.10;;
21018;SDS011;10667;51.056;3.732;2022-08-19T08:27:54;20.65;;;12.18;;
21018;SDS011;10667;51.056;3.732;2022-08-19T08:30:22;16.95;;;10.73;;
21018;SDS011;10667;51.056;3.732;2022-08-19T08:32:49;15.85;;;11.30;;
21018;SDS011;10667;51.056;3.732;2022-08-19T08:35:17;20.35;;;12.50;;
21018;SDS011;10667;51.056;3.732;2022-08-19T08:37:45;19.98;;;12.55;;
21018;SDS011;10667;51.056;3.732;2022-08-19T08:40:29;17.63;;;11.65;;
21018;SDS011;10667;51.056;3.732;2022-08-19T08:43:09;16.33;;;12.10;;
21018;SDS011;10667;51.056;3.732;2022-08-19T08:46:06;15.65;;;12.13;;
21018;SDS011;10667;51.056;3.732;2022-08-19T08:48:44;16.30;;;11.13;;
21018;SDS011;10667;51.056;3.732;2022-08-19T08:51:18;17.33;;;11.75;;
21018;SDS011;10667;51.056;3.732;2022-08-19T08:53:51;17.80;;;11.52;;
21018;SDS011;10667;51.056;3.732;2022-08-19T08:56:18;15.90;;;12.05;;
21018;SDS011;10667;51.056;3.732;2022-08-19T08:58:46;15.55;;;11.68;;
21018;SDS011;10667;51.056;3.732;2022-08-19T09:01:19;14.75;;;10.50;;
21018;SDS011;10667;51.056;3.732;2022-08-19T09:03:45;13.65;;;10.55;;
21018;SDS011;10667;51.056;3.732;2022-08-19T09:06:18;15.70;;;11.00;;
21018;SDS011;10667;51.056;3.732;2022-08-19T09:09:12;10.48;;;8.88;;
21018;SDS011;10667;51.056;3.732;2022-08-19T09:17:24;12.10;;;8.80;;
21018;SDS011;10667;51.056;3.732;2022-08-19T09:20:06;12.35;;;8.98;;
21018;SDS011;10667;51.056;3.732;2022-08-19T09:22:36;13.70;;;7.90;;
21018;SDS011;10667;51.056;3.732;2022-08-19T09:25:03;9.88;;;6.80;;
21018;SDS011;10667;51.056;3.732;2022-08-19T09:27:30;9.98;;;6.80;;
21018;SDS011;10667;51.056;3.732;2022-08-19T09:29:57;10.23;;;6.30;;
21018;SDS011;10667;51.056;3.732;2022-08-19T09:32:23;7.82;;;6.45;;
21018;SDS011;10667;51.056;3.732;2022-08-19T09:34:52;7.60;;;5.97;;
21018;SDS011;10667;51.056;3.732;2022-08-19T09:37:19;8.85;;;5.88;;
21018;SDS011;10667;51.056;3.732;2022-08-19T09:39:46;6.15;;;4.75;;
21018;SDS011;10667;51.056;3.732;2022-08-19T09:42:12;10.18;;;4.35;;
21018;SDS011;10667;51.056;3.732;2022-08-19T09:44:42;5.95;;;3.58;;
21018;SDS011;10667;51.056;3.732;2022-08-19T09:47:09;5.80;;;3.67;;
21018;SDS011;10667;51.056;3.732;2022-08-19T09:49:36;6.57;;;3.28;;
21018;SDS011;10667;51.056;3.732;2022-08-19T09:52:04;7.47;;;3.20;;
21018;SDS011;10667;51.056;3.732;2022-08-19T09:54:32;5.20;;;3.47;;
21018;SDS011;10667;51.056;3.732;2022-08-19T09:56:59;5.30;;;2.95;;
21018;SDS011;10667;51.056;3.732;2022-08-19T09:59:25;13.90;;;3.00;;
21018;SDS011;10667;51.056;3.732;2022-08-19T10:01:52;4.93;;;2.80;;
21018;SDS011;10667;51.056;3.732;2022-08-19T10:04:18;4.18;;;2.60;;
21018;SDS011;10667;51.056;3.732;2022-08-19T10:06:45;6.80;;;3.35;;
21018;SDS011;10667;51.056;3.732;2022-08-19T10:09:13;3.95;;;2.90;;
21018;SDS011;10667;51.056;3.732;2022-08-19T10:11:40;5.15;;;3.53;;
21018;SDS011;10667;51.056;3.732;2022-08-19T10:14:07;8.85;;;3.33;;
21018;SDS011;10667;51.056;3.732;2022-08-19T10:16:33;3.72;;;3.20;;
21018;SDS011;10667;51.056;3.732;2022-08-19T10:19:01;4.93;;;3.30;;
21018;SDS011;10667;51.056;3.732;2022-08-19T10:21:28;4.93;;;3.00;;
21018;SDS011;10667;51.056;3.732;2022-08-19T10:23:56;4.78;;;3.25;;
21018;SDS011;10667;51.056;3.732;2022-08-19T10:26:26;8.77;;;3.42;;
21018;SDS011;10667;51.056;3.732;2022-08-19T10:28:56;5.28;;;3.20;;
21018;SDS011;10667;51.056;3.732;2022-08-19T10:31:29;5.57;;;3.25;;
21018;SDS011;10667;51.056;3.732;2022-08-19T10:33:56;5.57;;;3.05;;
21018;SDS011;10667;51.056;3.732;2022-08-19T10:36:33;5.88;;;2.97;;
21018;SDS011;10667;51.056;3.732;2022-08-19T10:39:03;3.97;;;2.97;;
21018;SDS011;10667;51.056;3.732;2022-08-19T10:41:32;5.97;;;3.63;;
21018;SDS011;10667;51.056;3.732;2022-08-19T10:44:01;7.70;;;4.20;;
21018;SDS011;10667;51.056;3.732;2022-08-19T10:46:29;5.72;;;4.50;;
21018;SDS011;10667;51.056;3.732;2022-08-19T10:48:57;7.40;;;3.97;;
21018;SDS011;10667;51.056;3.732;2022-08-19T10:51:25;6.63;;;4.43;;
21018;SDS011;10667;51.056;3.732;2022-08-19T10:54:09;5.65;;;5.03;;
21018;SDS011;10667;51.056;3.732;2022-08-19T10:56:35;6.13;;;5.13;;
21018;SDS011;10667;51.056;3.732;2022-08-19T10:59:18;6.97;;;5.50;;
21018;SDS011;10667;51.056;3.732;2022-08-19T11:01:47;5.55;;;4.93;;
21018;SDS011;10667;51.056;3.732;2022-08-19T11:04:13;5.82;;;4.70;;
21018;SDS011;10667;51.056;3.732;2022-08-19T11:06:46;6.68;;;5.07;;
21018;SDS011;10667;51.056;3.732;2022-08-19T11:09:13;6.18;;;5.10;;
21018;SDS011;10667;51.056;3.732;2022-08-19T11:11:40;5.45;;;4.68;;
21018;SDS011;10667;51.056;3.732;2022-08-19T11:14:11;6.25;;;5.65;;
21018;SDS011;10667;51.056;3.732;2022-08-19T11:16:38;7.78;;;5.50;;
21018;SDS011;10667;51.056;3.732;2022-08-19T11:19:07;7.47;;;6.10;;
21018;SDS011;10667;51.056;3.732;2022-08-19T11:21:39;6.95;;;5.60;;
21018;SDS011;10667;51.056;3.732;2022-08-19T11:24:07;6.47;;;5.35;;
21018;SDS011;10667;51.056;3.732;2022-08-19T11:26:39;5.05;;;3.90;;
21018;SDS011;10667;51.056;3.732;2022-08-19T11:29:06;8.43;;;4.45;;
21018;SDS011;10667;51.056;3.732;2022-08-19T11:31:36;6.38;;;3.63;;
21018;SDS011;10667;51.056;3.732;2022-08-19T11:34:05;3.20;;;2.40;;
21018;SDS011;10667;51.056;3.732;2022-08-19T11:36:33;2.92;;;2.55;;
21018;SDS011;10667;51.056;3.732;2022-08-19T11:39:02;3.95;;;2.92;;
21018;SDS011;10667;51.056;3.732;2022-08-19T11:41:32;5.40;;;2.53;;
21018;SDS011;10667;51.056;3.732;2022-08-19T11:43:57;3.80;;;2.67;;
21018;SDS011;10667;51.056;3.732;2022-08-19T11:46:24;3.90;;;3.22;;
21018;SDS011;10667;51.056;3.732;2022-08-19T11:48:54;4.68;;;2.20;;
21018;SDS011;10667;51.056;3.732;2022-08-19T11:51:21;4.95;;;2.17;;
21018;SDS011;10667;51.056;3.732;2022-08-19T11:53:49;2.42;;;1.67;;
21018;SDS011;10667;51.056;3.732;2022-08-19T11:56:16;3.15;;;1.70;;
21018;SDS011;10667;51.056;3.732;2022-08-19T11:58:44;3.22;;;1.42;;
21018;SDS011;10667;51.056;3.732;2022-08-19T12:01:14;4.78;;;1.38;;
21018;SDS011;10667;51.056;3.732;2022-08-19T12:03:42;2.25;;;1.50;;
21018;SDS011;10667;51.056;3.732;2022-08-19T12:06:10;4.45;;;1.30;;
21018;SDS011;10667;51.056;3.732;2022-08-19T12:08:39;5.40;;;2.50;;
21018;SDS011;10667;51.056;3.732;2022-08-19T12:11:08;6.55;;;3.00;;
21018;SDS011;10667;51.056;3.732;2022-08-19T12:13:35;3.15;;;2.50;;
21018;SDS011;10667;51.056;3.732;2022-08-19T12:16:08;2.70;;;2.40;;
21018;SDS011;10667;51.056;3.732;2022-08-19T12:18:39;5.20;;;2.40;;
21018;SDS011;10667;51.056;3.732;2022-08-19T12:21:08;3.65;;;2.45;;
21018;SDS011;10667;51.056;3.732;2022-08-19T12:23:36;5.15;;;3.05;;
21018;SDS011;10667;51.056;3.732;2022-08-19T12:26:02;4.95;;;3.03;;
21018;SDS011;10667;51.056;3.732;2022-08-19T12:28:28;4.15;;;2.92;;
21018;SDS011;10667;51.056;3.732;2022-08-19T12:30:55;10.05;;;3.67;;
21018;SDS011;10667;51.056;3.732;2022-08-19T12:33:21;6.72;;;3.47;;
21018;SDS011;10667;51.056;3.732;2022-08-19T12:35:50;5.15;;;3.30;;
21018;SDS011;10667;51.056;3.732;2022-08-19T12:38:16;4.13;;;3.22;;
21018;SDS011;10667;51.056;3.732;2022-08-19T12:40:45;4.50;;;3.25;;
21018;SDS011;10667;51.056;3.732;2022-08-19T12:43:12;6.38;;;2.70;;
21018;SDS011;10667;51.056;3.732;2022-08-19T12:45:38;3.65;;;2.20;;
21018;SDS011;10667;51.056;3.732;2022-08-19T12:48:04;5.10;;;2.03;;
21018;SDS011;10667;51.056;3.732;2022-08-19T12:50:30;3.35;;;1.90;;
21018;SDS011;10667;51.056;3.732;2022-08-19T12:52:56;2.60;;;1.60;;
21018;SDS011;10667;51.056;3.732;2022-08-19T12:55:23;6.03;;;2.00;;
21018;SDS011;10667;51.056;3.732;2022-08-19T12:57:49;3.55;;;1.70;;
21018;SDS011;10667;51.056;3.732;2022-08-19T13:00:16;2.40;;;1.80;;
21018;SDS011;10667;51.056;3.732;2022-08-19T13:02:46;3.00;;;1.70;;
21018;SDS011;10667;51.056;3.732;2022-08-19T13:05:15;3.05;;;1.38;;
21018;SDS011;10667;51.056;3.732;2022-08-19T13:07:48;2.42;;;1.50;;
21018;SDS011;10667;51.056;3.732;2022-08-19T13:10:15;3.42;;;1.70;;
21018;SDS011;10667;51.056;3.732;2022-08-19T13:12:44;2.35;;;1.20;;
21018;SDS011;10667;51.056;3.732;2022-08-19T13:15:12;2.72;;;1.52;;
21018;SDS011;10667;51.056;3.732;2022-08-19T13:17:38;3.13;;;1.35;;
21018;SDS011;10667;51.056;3.732;2022-08-19T13:20:05;4.47;;;1.85;;
21018;SDS011;10667;51.056;3.732;2022-08-19T13:22:33;11.40;;;2.10;;
21018;SDS011;10667;51.056;3.732;2022-08-19T13:25:00;13.02;;;3.88;;
21018;SDS011;10667;51.056;3.732;2022-08-19T13:27:26;6.95;;;2.63;;
21018;SDS011;10667;51.056;3.732;2022-08-19T13:29:51;10.63;;;3.05;;
21018;SDS011;10667;51.056;3.732;2022-08-19T13:32:35;25.05;;;5.43;;
21018;SDS011;10667;51.056;3.732;2022-08-19T13:35:20;9.68;;;3.15;;
21018;SDS011;10667;51.056;3.732;2022-08-19T13:37:45;7.65;;;2.25;;
21018;SDS011;10667;51.056;3.732;2022-08-19T13:40:13;6.53;;;1.98;;
21018;SDS011;10667;51.056;3.732;2022-08-19T13:42:41;3.42;;;1.65;;
21018;SDS011;10667;51.056;3.732;2022-08-19T13:45:07;6.75;;;2.10;;
21018;SDS011;10667;51.056;3.732;2022-08-19T13:47:34;4.32;;;2.20;;
21018;SDS011;10667;51.056;3.732;2022-08-19T13:50:02;5.57;;;1.90;;
21018;SDS011;10667;51.056;3.732;2022-08-19T13:52:28;4.53;;;1.73;;
21018;SDS011;10667;51.056;3.732;2022-08-19T13:54:54;6.05;;;2.03;;
21018;SDS011;10667;51.056;3.732;2022-08-19T13:57:21;5.20;;;2.35;;
21018;SDS011;10667;51.056;3.732;2022-08-19T13:59:47;5.03;;;2.55;;
21018;SDS011;10667;51.056;3.732;2022-08-19T14:02:12;8.20;;;2.88;;
21018;SDS011;10667;51.056;3.732;2022-08-19T14:04:38;4.68;;;2.55;;
21018;SDS011;10667;51.056;3.732;2022-08-19T14:07:04;6.75;;;3.00;;
21018;SDS011;10667;51.056;3.732;2022-08-19T14:09:30;7.18;;;3.20;;
21018;SDS011;10667;51.056;3.732;2022-08-19T14:11:56;9.27;;;3.47;;
21018;SDS011;10667;51.056;3.732;2022-08-19T14:14:22;9.02;;;3.40;;
21018;SDS011;10667;51.056;3.732;2022-08-19T14:16:48;6.45;;;2.80;;
21018;SDS011;10667;51.056;3.732;2022-08-19T14:19:14;4.88;;;2.72;;
21018;SDS011;10667;51.056;3.732;2022-08-19T14:21:41;6.03;;;2.85;;
21018;SDS011;10667;51.056;3.732;2022-08-19T14:24:07;6.93;;;3.13;;
21018;SDS011;10667;51.056;3.732;2022-08-19T14:26:33;7.57;;;3.85;;
21018;SDS011;10667;51.056;3.732;2022-08-19T14:28:59;9.75;;;3.30;;
21018;SDS011;10667;51.056;3.732;2022-08-19T14:31:26;5.40;;;3.20;;
21018;SDS011;10667;51.056;3.732;2022-08-19T14:33:52;8.38;;;3.58;;
21018;SDS011;10667;51.056;3.732;2022-08-19T14:36:18;8.80;;;4.38;;
21018;SDS011;10667;51.056;3.732;2022-08-19T14:38:45;8.90;;;4.00;;
21018;SDS011;10667;51.056;3.732;2022-08-19T14:41:16;7.97;;;4.80;;
21018;SDS011;10667;51.056;3.732;2022-08-19T14:43:47;7.10;;;4.45;;